Time;durP1;ratioP1;P1;durP2;ratioP2;P2;SDS_P1;SDS_P2;PMS_P1;PMS_P2;Temp;Humidity;BMP_temperature;BMP_pressure;BME280_temperature;BME280_humidity;BME280_pressure;Samples;Min_cycle;Max_cycle;Signal;HPM_P1;HPM_P2
2023/05/28 00:01:34;;;;;;;2.43;1.47;;;;;;;;;;6214333;23;20185;-87
2023/05/28 00:04:02;;;;;;;1.33;1.23;;;;;;;;;;6214145;23;20198;-88
2023/05/28 00:06:31;;;;;;;2.93;1.83;;;;;;;;;;6213985;23;20195;-88
2023/05/28 00:09:00;;;;;;;2.27;0.83;;;;;;;;;;6214313;23;20183;-88
2023/05/28 00:11:28;;;;;;;3.40;2.37;;;;;;;;;;6214424;23;20260;-88
2023/05/28 00:13:56;;;;;;;1.10;1.10;;;;;;;;;;6214248;23;20185;-88
2023/05/28 00:16:27;;;;;;;3.40;3.10;;;;;;;;;;6214293;23;20171;-88
2023/05/28 00:18:56;;;;;;;1.63;1.53;;;;;;;;;;6213671;23;20176;-88
2023/05/28 00:21:26;;;;;;;7.10;2.93;;;;;;;;;;6213939;23;20183;-88
2023/05/28 00:23:54;;;;;;;1.67;1.57;;;;;;;;;;6214325;23;20230;-88
2023/05/28 00:26:23;;;;;;;13.77;2.67;;;;;;;;;;6214079;23;20193;-88
2023/05/28 00:28:52;;;;;;;2.93;2.70;;;;;;;;;;6214132;23;20200;-88
2023/05/28 00:31:20;;;;;;;7.03;1.87;;;;;;;;;;6214488;23;20278;-88
2023/05/28 00:33:50;;;;;;;2.73;1.97;;;;;;;;;;6214396;23;20183;-87
2023/05/28 00:36:18;;;;;;;4.93;1.97;;;;;;;;;;6213949;23;20171;-88
2023/05/28 00:38:47;;;;;;;1.23;1.23;;;;;;;;;;6214634;23;20270;-85
2023/05/28 00:41:20;;;;;;;3.67;3.37;;;;;;;;;;6214144;23;20173;-88
2023/05/28 00:43:48;;;;;;;2.90;1.27;;;;;;;;;;6213419;23;20213;-87
2023/05/28 00:46:19;;;;;;;2.00;1.87;;;;;;;;;;6213676;23;20224;-88
2023/05/28 00:48:47;;;;;;;6.13;3.37;;;;;;;;;;6213734;23;20180;-88
2023/05/28 00:51:18;;;;;;;3.33;3.13;;;;;;;;;;6214315;23;20179;-88
2023/05/28 00:53:46;;;;;;;2.60;2.40;;;;;;;;;;6214600;23;20170;-88
2023/05/28 00:56:15;;;;;;;1.57;1.47;;;;;;;;;;6216369;23;20178;-88
2023/05/28 00:58:44;;;;;;;1.00;1.00;;;;;;;;;;6216048;23;20171;-87
2023/05/28 01:01:12;;;;;;;0.60;0.60;;;;;;;;;;6215653;23;20178;-88
2023/05/28 01:03:41;;;;;;;1.30;1.30;;;;;;;;;;6217168;23;20174;-88
2023/05/28 01:06:14;;;;;;;2.93;2.00;;;;;;;;;;6216191;23;20194;-88
2023/05/28 01:08:44;;;;;;;9.27;3.43;;;;;;;;;;6215917;23;20175;-88
2023/05/28 01:11:15;;;;;;;1.90;1.73;;;;;;;;;;6216283;23;20203;-88
2023/05/28 01:13:43;;;;;;;3.17;2.87;;;;;;;;;;6216281;23;20301;-87
2023/05/28 01:16:12;;;;;;;10.63;2.60;;;;;;;;;;6215969;23;20170;-88
2023/05/28 01:18:41;;;;;;;3.43;3.10;;;;;;;;;;6215147;23;20171;-88
2023/05/28 01:21:10;;;;;;;0.80;0.80;;;;;;;;;;6216115;23;20175;-88
2023/05/28 01:23:41;;;;;;;3.37;1.53;;;;;;;;;;6216122;23;20293;-88
2023/05/28 01:26:10;;;;;;;6.43;2.50;;;;;;;;;;6215481;23;20186;-88
2023/05/28 01:28:43;;;;;;;3.20;2.90;;;;;;;;;;6215543;23;20195;-87
2023/05/28 01:31:12;;;;;;;1.53;1.13;;;;;;;;;;6216520;23;20188;-88
2023/05/28 01:33:41;;;;;;;5.33;3.57;;;;;;;;;;6215576;23;20238;-87
2023/05/28 01:36:11;;;;;;;1.13;1.13;;;;;;;;;;6215769;23;20177;-88
2023/05/28 01:38:43;;;;;;;1.97;1.87;;;;;;;;;;6215346;23;20177;-88
2023/05/28 01:41:12;;;;;;;7.73;2.37;;;;;;;;;;6215745;23;20230;-88
2023/05/28 01:43:41;;;;;;;2.30;1.83;;;;;;;;;;6215717;23;20179;-87
2023/05/28 01:46:10;;;;;;;11.63;3.90;;;;;;;;;;6215735;23;20298;-88
2023/05/28 01:48:39;;;;;;;4.50;1.37;;;;;;;;;;6215532;23;20171;-88
2023/05/28 01:51:07;;;;;;;1.53;1.43;;;;;;;;;;6215242;23;20187;-88
2023/05/28 01:53:36;;;;;;;6.67;3.63;;;;;;;;;;6215767;23;20186;-88
2023/05/28 01:56:06;;;;;;;1.97;1.87;;;;;;;;;;6215267;23;20181;-87
2023/05/28 01:58:35;;;;;;;4.80;2.00;;;;;;;;;;6215258;23;20171;-88
2023/05/28 02:01:08;;;;;;;3.03;2.80;;;;;;;;;;6214953;23;20222;-88
2023/05/28 02:03:37;;;;;;;5.20;3.80;;;;;;;;;;6215581;23;20207;-88
2023/05/28 02:06:06;;;;;;;3.00;1.90;;;;;;;;;;6215057;23;20188;-87
2023/05/28 02:08:34;;;;;;;3.67;2.90;;;;;;;;;;6215269;23;20203;-88
2023/05/28 02:11:03;;;;;;;3.43;3.03;;;;;;;;;;6215727;23;20177;-88
2023/05/28 02:13:33;;;;;;;4.30;2.10;;;;;;;;;;6215447;23;20179;-87
2023/05/28 02:16:01;;;;;;;2.53;2.27;;;;;;;;;;6215150;23;20195;-88
2023/05/28 02:18:30;;;;;;;0.97;0.97;;;;;;;;;;6215594;23;20175;-88
2023/05/28 02:20:58;;;;;;;2.90;1.67;;;;;;;;;;6215540;23;20183;-87
2023/05/28 02:23:27;;;;;;;4.13;3.73;;;;;;;;;;6215777;23;20167;-88
2023/05/28 02:25:55;;;;;;;1.33;1.27;;;;;;;;;;6214867;23;20175;-87
2023/05/28 02:28:24;;;;;;;4.97;1.33;;;;;;;;;;6215350;23;20225;-88
2023/05/28 02:30:53;;;;;;;3.93;1.20;;;;;;;;;;6215166;23;20178;-88
2023/05/28 02:33:23;;;;;;;3.40;1.37;;;;;;;;;;6214955;23;20174;-88
2023/05/28 02:35:51;;;;;;;2.13;2.03;;;;;;;;;;6215766;23;20189;-88
2023/05/28 02:38:21;;;;;;;2.23;1.13;;;;;;;;;;6215868;23;20179;-88
2023/05/28 02:40:49;;;;;;;4.33;2.87;;;;;;;;;;6214722;23;20210;-88
2023/05/28 02:43:18;;;;;;;1.53;1.53;;;;;;;;;;6215496;23;20206;-88
2023/05/28 02:45:46;;;;;;;1.33;1.33;;;;;;;;;;6214847;23;20220;-88
2023/05/28 02:48:16;;;;;;;2.77;1.97;;;;;;;;;;6215123;23;20195;-88
2023/05/28 02:50:45;;;;;;;1.07;1.07;;;;;;;;;;6215114;23;20179;-88
2023/05/28 02:53:13;;;;;;;2.40;2.20;;;;;;;;;;6215542;23;20232;-88
2023/05/28 02:55:41;;;;;;;1.60;1.53;;;;;;;;;;6215373;23;20174;-87
2023/05/28 02:58:10;;;;;;;2.30;2.10;;;;;;;;;;6214575;23;20179;-88
2023/05/28 03:00:38;;;;;;;2.77;0.97;;;;;;;;;;6215089;23;20232;-88
2023/05/28 03:03:10;;;;;;;4.10;2.73;;;;;;;;;;6214873;23;20171;-88
2023/05/28 03:05:40;;;;;;;3.10;1.70;;;;;;;;;;6214600;23;20181;-87
2023/05/28 03:08:08;;;;;;;1.83;1.73;;;;;;;;;;6214639;23;20204;-87
2023/05/28 03:10:37;;;;;;;1.10;1.10;;;;;;;;;;6214934;23;20178;-88
2023/05/28 03:13:05;;;;;;;3.77;2.07;;;;;;;;;;6214668;23;20182;-88
2023/05/28 03:15:33;;;;;;;2.00;1.50;;;;;;;;;;6214931;23;20184;-88
2023/05/28 03:18:03;;;;;;;2.63;2.03;;;;;;;;;;6214786;23;20174;-87
2023/05/28 03:20:32;;;;;;;1.60;1.50;;;;;;;;;;6214314;23;20171;-88
2023/05/28 03:23:02;;;;;;;5.47;3.53;;;;;;;;;;6214657;23;20171;-87
2023/05/28 03:25:31;;;;;;;10.37;1.67;;;;;;;;;;6214354;23;20170;-87
2023/05/28 03:27:59;;;;;;;3.27;2.97;;;;;;;;;;6214910;23;20214;-87
2023/05/28 03:30:28;;;;;;;7.83;3.53;;;;;;;;;;6214203;23;20176;-87
2023/05/28 03:32:56;;;;;;;2.60;2.40;;;;;;;;;;6214492;23;20178;-87
2023/05/28 03:35:25;;;;;;;2.07;1.87;;;;;;;;;;6214578;23;20174;-87
2023/05/28 03:37:53;;;;;;;4.47;3.53;;;;;;;;;;6214704;23;20230;-87
2023/05/28 03:40:26;;;;;;;1.90;1.77;;;;;;;;;;6214464;23;20174;-87
2023/05/28 03:42:54;;;;;;;1.90;1.80;;;;;;;;;;6214433;23;20251;-88
2023/05/28 03:45:23;;;;;;;1.13;1.13;;;;;;;;;;6214626;23;20209;-84
2023/05/28 03:47:51;;;;;;;2.87;2.57;;;;;;;;;;6214023;23;20194;-85
2023/05/28 03:50:21;;;;;;;10.87;3.10;;;;;;;;;;6214229;23;20213;-84
2023/05/28 03:52:50;;;;;;;2.17;2.07;;;;;;;;;;6214078;23;20183;-84
2023/05/28 03:55:18;;;;;;;4.23;2.60;;;;;;;;;;6213888;23;20233;-85
2023/05/28 03:57:48;;;;;;;3.50;2.57;;;;;;;;;;6214088;23;20170;-85
2023/05/28 04:00:17;;;;;;;3.90;2.37;;;;;;;;;;6214293;23;20175;-85
2023/05/28 04:02:46;;;;;;;3.07;2.87;;;;;;;;;;6214659;23;20182;-84
2023/05/28 04:05:15;;;;;;;5.63;1.50;;;;;;;;;;6213911;23;20263;-85
2023/05/28 04:07:43;;;;;;;0.93;0.93;;;;;;;;;;6213935;23;20190;-85
2023/05/28 04:10:12;;;;;;;1.23;1.23;;;;;;;;;;6214082;23;20175;-85
2023/05/28 04:12:40;;;;;;;1.33;1.30;;;;;;;;;;6213662;23;20218;-85
2023/05/28 04:15:10;;;;;;;7.67;4.17;;;;;;;;;;6213714;23;20166;-85
2023/05/28 04:17:39;;;;;;;7.67;3.33;;;;;;;;;;6214294;23;20198;-85
2023/05/28 04:20:09;;;;;;;2.13;2.00;;;;;;;;;;6214229;23;20180;-85
2023/05/28 04:22:37;;;;;;;8.90;4.33;;;;;;;;;;6213515;23;20190;-85
2023/05/28 04:25:06;;;;;;;3.37;2.57;;;;;;;;;;6214272;23;20180;-85
2023/05/28 04:27:34;;;;;;;1.80;1.63;;;;;;;;;;6213517;23;20202;-85
2023/05/28 04:30:03;;;;;;;3.73;3.53;;;;;;;;;;6213590;23;20175;-84
2023/05/28 04:32:33;;;;;;;3.47;2.13;;;;;;;;;;6214371;23;20174;-85
2023/05/28 04:35:03;;;;;;;2.23;1.67;;;;;;;;;;6213839;23;20241;-85
2023/05/28 04:37:33;;;;;;;4.23;2.63;;;;;;;;;;6213074;23;20293;-85
2023/05/28 04:40:02;;;;;;;1.47;1.37;;;;;;;;;;6213817;23;20179;-85
2023/05/28 04:42:30;;;;;;;7.43;3.83;;;;;;;;;;6214103;23;20232;-85
2023/05/28 04:44:59;;;;;;;3.63;2.33;;;;;;;;;;6213718;23;20175;-84
2023/05/28 04:47:28;;;;;;;8.17;4.13;;;;;;;;;;6213298;23;20200;-85
2023/05/28 04:49:59;;;;;;;5.53;3.67;;;;;;;;;;6213972;23;20187;-85
2023/05/28 04:52:27;;;;;;;3.70;2.17;;;;;;;;;;6213778;23;20171;-85
2023/05/28 04:54:55;;;;;;;2.63;2.07;;;;;;;;;;6213602;23;20186;-87
2023/05/28 04:57:24;;;;;;;2.40;2.20;;;;;;;;;;6213762;23;20175;-85
2023/05/28 04:59:52;;;;;;;8.40;2.93;;;;;;;;;;6214075;23;20170;-85
2023/05/28 05:02:23;;;;;;;6.50;3.77;;;;;;;;;;6213326;23;20183;-85
2023/05/28 05:04:51;;;;;;;2.07;1.93;;;;;;;;;;6213885;23;20184;-85
2023/05/28 05:07:22;;;;;;;4.33;3.93;;;;;;;;;;6213611;23;20176;-85
2023/05/28 05:09:50;;;;;;;2.00;1.90;;;;;;;;;;6213310;23;20198;-85
2023/05/28 05:12:19;;;;;;;3.43;1.90;;;;;;;;;;6212901;23;20235;-84
2023/05/28 05:14:49;;;;;;;2.20;2.00;;;;;;;;;;6214068;23;20264;-85
2023/05/28 05:17:17;;;;;;;7.30;4.07;;;;;;;;;;6213907;23;20179;-85
2023/05/28 05:19:46;;;;;;;4.30;3.37;;;;;;;;;;6213964;23;20168;-85
2023/05/28 05:22:15;;;;;;;9.07;2.97;;;;;;;;;;6213600;23;20184;-85
2023/05/28 05:24:45;;;;;;;3.00;2.63;;;;;;;;;;6213681;23;20191;-85
2023/05/28 05:27:13;;;;;;;2.80;1.80;;;;;;;;;;6213562;23;20196;-85
2023/05/28 05:29:44;;;;;;;3.83;2.20;;;;;;;;;;6213506;23;20173;-86
2023/05/28 05:32:12;;;;;;;5.23;2.30;;;;;;;;;;6213702;23;20214;-87
2023/05/28 05:34:41;;;;;;;3.93;2.20;;;;;;;;;;6213531;23;20215;-87
2023/05/28 05:37:10;;;;;;;4.60;1.93;;;;;;;;;;6213458;23;20180;-87
2023/05/28 05:39:38;;;;;;;2.83;2.13;;;;;;;;;;6214843;23;20179;-87
2023/05/28 05:42:08;;;;;;;2.70;2.60;;;;;;;;;;6215595;23;20180;-87
2023/05/28 05:44:37;;;;;;;2.60;2.10;;;;;;;;;;6215516;23;20182;-87
2023/05/28 05:47:06;;;;;;;1.17;1.17;;;;;;;;;;6215159;23;20272;-87
2023/05/28 05:49:34;;;;;;;5.93;3.27;;;;;;;;;;6215615;23;20197;-85
2023/05/28 05:52:02;;;;;;;8.60;3.37;;;;;;;;;;6215575;23;20196;-85
2023/05/28 05:54:31;;;;;;;3.23;1.93;;;;;;;;;;6214685;23;20170;-85
2023/05/28 05:57:02;;;;;;;8.33;3.53;;;;;;;;;;6215221;23;20168;-85
2023/05/28 05:59:32;;;;;;;5.30;2.67;;;;;;;;;;6215534;23;20180;-85
2023/05/28 06:02:00;;;;;;;5.10;3.20;;;;;;;;;;6214590;23;20184;-85
2023/05/28 06:04:31;;;;;;;4.43;3.37;;;;;;;;;;6215100;23;20182;-85
2023/05/28 06:07:05;;;;;;;1.13;1.13;;;;;;;;;;6215513;23;20174;-85
2023/05/28 06:09:34;;;;;;;6.93;2.70;;;;;;;;;;6214568;23;20292;-85
2023/05/28 06:12:03;;;;;;;2.27;2.07;;;;;;;;;;6215150;23;20177;-85
2023/05/28 06:14:33;;;;;;;4.23;2.33;;;;;;;;;;6215456;23;20263;-87
2023/05/28 06:17:02;;;;;;;4.23;3.83;;;;;;;;;;6215566;23;20179;-87
2023/05/28 06:19:31;;;;;;;7.47;3.23;;;;;;;;;;6214894;23;20174;-87
2023/05/28 06:21:59;;;;;;;4.53;2.87;;;;;;;;;;6215034;23;20190;-87
2023/05/28 06:24:28;;;;;;;3.73;1.90;;;;;;;;;;6215022;23;20174;-87
2023/05/28 06:26:56;;;;;;;4.73;2.40;;;;;;;;;;6214965;23;20251;-87
2023/05/28 06:29:24;;;;;;;5.50;2.40;;;;;;;;;;6214885;23;20200;-87
2023/05/28 06:31:56;;;;;;;2.07;1.83;;;;;;;;;;6215402;23;20188;-87
2023/05/28 06:34:24;;;;;;;5.30;2.40;;;;;;;;;;6214967;23;20216;-87
2023/05/28 06:36:53;;;;;;;6.87;5.20;;;;;;;;;;6214138;23;20211;-87
2023/05/28 06:39:22;;;;;;;3.97;2.33;;;;;;;;;;6215183;23;20173;-87
2023/05/28 06:41:50;;;;;;;2.47;1.80;;;;;;;;;;6215247;23;20178;-87
2023/05/28 06:44:19;;;;;;;7.30;3.07;;;;;;;;;;6214323;23;20243;-87
2023/05/28 06:46:48;;;;;;;3.33;1.67;;;;;;;;;;6215166;23;20212;-87
2023/05/28 06:49:17;;;;;;;11.50;3.13;;;;;;;;;;6214984;23;20201;-87
2023/05/28 06:51:46;;;;;;;4.33;2.77;;;;;;;;;;6213893;23;20198;-87
2023/05/28 06:54:14;;;;;;;8.60;3.73;;;;;;;;;;6214846;23;20236;-86
2023/05/28 06:56:43;;;;;;;5.77;5.20;;;;;;;;;;6214935;23;20185;-87
2023/05/28 06:59:12;;;;;;;3.67;3.37;;;;;;;;;;6214779;23;20174;-87
2023/05/28 07:01:40;;;;;;;5.23;3.33;;;;;;;;;;6214394;23;20181;-87
2023/05/28 07:04:09;;;;;;;5.07;3.33;;;;;;;;;;6215225;23;20191;-87
2023/05/28 07:06:39;;;;;;;3.87;2.83;;;;;;;;;;6214708;23;20178;-87
2023/05/28 07:09:11;;;;;;;4.67;3.33;;;;;;;;;;6214792;23;20194;-87
2023/05/28 07:11:39;;;;;;;6.17;2.43;;;;;;;;;;6214506;23;20167;-87
2023/05/28 07:14:08;;;;;;;4.93;2.83;;;;;;;;;;6214842;23;20202;-87
2023/05/28 07:16:36;;;;;;;9.00;3.73;;;;;;;;;;6214129;23;20170;-87
2023/05/28 07:19:05;;;;;;;4.73;2.53;;;;;;;;;;6214294;23;20170;-87
2023/05/28 07:21:34;;;;;;;10.50;5.17;;;;;;;;;;6215027;23;20189;-87
2023/05/28 07:24:05;;;;;;;9.67;4.50;;;;;;;;;;6214853;23;20201;-87
2023/05/28 07:26:34;;;;;;;9.33;3.07;;;;;;;;;;6214225;23;20174;-87
2023/05/28 07:29:02;;;;;;;6.37;4.33;;;;;;;;;;6214336;23;20182;-87
2023/05/28 07:31:31;;;;;;;7.13;3.07;;;;;;;;;;6214852;23;20189;-87
2023/05/28 07:33:59;;;;;;;3.77;2.33;;;;;;;;;;6214321;23;20184;-86
2023/05/28 07:36:28;;;;;;;5.30;3.37;;;;;;;;;;6214296;23;20185;-86
2023/05/28 07:38:56;;;;;;;8.97;3.67;;;;;;;;;;6214407;23;20170;-86
2023/05/28 07:41:26;;;;;;;5.90;4.33;;;;;;;;;;6214284;23;20236;-86
2023/05/28 07:43:55;;;;;;;5.00;4.60;;;;;;;;;;6214710;23;20181;-86
2023/05/28 07:46:23;;;;;;;6.53;2.10;;;;;;;;;;6213870;23;20264;-87
2023/05/28 07:48:52;;;;;;;4.90;3.73;;;;;;;;;;6214669;23;20185;-87
2023/05/28 07:51:21;;;;;;;7.20;4.37;;;;;;;;;;6213546;23;20178;-87
2023/05/28 07:53:49;;;;;;;6.40;4.27;;;;;;;;;;6214745;23;20193;-86
2023/05/28 07:56:18;;;;;;;4.23;2.93;;;;;;;;;;6213750;23;20171;-86
2023/05/28 07:58:48;;;;;;;5.37;3.43;;;;;;;;;;6214443;23;20182;-87
2023/05/28 08:01:16;;;;;;;5.90;3.60;;;;;;;;;;6214044;23;20182;-87
2023/05/28 08:03:48;;;;;;;5.70;3.10;;;;;;;;;;6214202;23;20174;-86
2023/05/28 08:06:17;;;;;;;7.67;3.50;;;;;;;;;;6214085;23;20178;-86
2023/05/28 08:08:45;;;;;;;6.37;4.10;;;;;;;;;;6214196;23;20174;-86
2023/05/28 08:11:14;;;;;;;4.40;3.30;;;;;;;;;;6214668;23;20186;-86
2023/05/28 08:13:43;;;;;;;7.50;4.30;;;;;;;;;;6214363;23;20184;-86
2023/05/28 08:16:13;;;;;;;4.27;2.60;;;;;;;;;;6213548;23;20180;-86
2023/05/28 08:18:42;;;;;;;1.70;1.60;;;;;;;;;;6213890;23;20246;-87
2023/05/28 08:21:12;;;;;;;6.60;3.23;;;;;;;;;;6214391;23;20174;-87
2023/05/28 08:23:41;;;;;;;6.57;3.10;;;;;;;;;;6214056;23;20170;-87
2023/05/28 08:26:09;;;;;;;7.53;3.50;;;;;;;;;;6214009;23;20186;-86
2023/05/28 08:28:37;;;;;;;7.50;4.63;;;;;;;;;;6214073;23;20200;-86
2023/05/28 08:31:06;;;;;;;7.33;4.13;;;;;;;;;;6213771;23;20190;-86
2023/05/28 08:33:36;;;;;;;11.97;5.07;;;;;;;;;;6213101;23;20261;-86
2023/05/28 08:36:06;;;;;;;3.27;1.97;;;;;;;;;;6214286;23;20179;-86
2023/05/28 08:38:34;;;;;;;4.87;3.03;;;;;;;;;;6213988;23;20205;-86
2023/05/28 08:41:03;;;;;;;4.00;2.87;;;;;;;;;;6213590;23;20209;-86
2023/05/28 08:43:32;;;;;;;3.10;2.33;;;;;;;;;;6213950;23;20179;-86
2023/05/28 08:46:00;;;;;;;6.40;3.97;;;;;;;;;;6213668;23;20203;-86
2023/05/28 08:48:30;;;;;;;6.20;3.43;;;;;;;;;;6213327;23;20190;-86
2023/05/28 08:51:00;;;;;;;7.30;3.43;;;;;;;;;;6213493;23;20285;-86
2023/05/28 08:53:31;;;;;;;9.17;4.00;;;;;;;;;;6213628;23;20218;-87
2023/05/28 08:56:00;;;;;;;9.43;4.00;;;;;;;;;;6213736;23;20178;-86
2023/05/28 08:58:28;;;;;;;12.53;2.87;;;;;;;;;;6213392;23;20258;-86
2023/05/28 09:00:57;;;;;;;7.37;4.93;;;;;;;;;;6213883;23;20168;-87
2023/05/28 09:03:26;;;;;;;5.50;3.67;;;;;;;;;;6213530;23;20177;-86
2023/05/28 09:05:55;;;;;;;5.33;3.83;;;;;;;;;;6213426;23;20185;-86
2023/05/28 09:08:25;;;;;;;5.10;2.83;;;;;;;;;;6213494;23;20167;-86
2023/05/28 09:10:53;;;;;;;5.70;3.37;;;;;;;;;;6213644;23;20196;-86
2023/05/28 09:13:22;;;;;;;3.93;2.47;;;;;;;;;;6213612;23;20185;-86
2023/05/28 09:15:51;;;;;;;5.87;3.27;;;;;;;;;;6214958;23;20171;-86
2023/05/28 09:18:21;;;;;;;6.07;4.20;;;;;;;;;;6215654;23;20233;-86
2023/05/28 09:20:50;;;;;;;5.50;3.67;;;;;;;;;;6215810;23;20173;-86
2023/05/28 09:23:20;;;;;;;12.03;3.57;;;;;;;;;;6215055;23;20179;-86
2023/05/28 09:25:51;;;;;;;5.77;4.20;;;;;;;;;;6216129;23;20235;-85
2023/05/28 09:28:20;;;;;;;5.50;3.23;;;;;;;;;;6215644;23;20194;-88
2023/05/28 09:30:49;;;;;;;6.23;3.63;;;;;;;;;;6215650;23;20225;-86
2023/05/28 09:33:19;;;;;;;2.73;1.87;;;;;;;;;;6215688;23;20238;-85
2023/05/28 09:35:59;;;;;;;6.70;3.80;;;;;;;;;;6216066;23;20178;-85
2023/05/28 09:38:27;;;;;;;2.80;1.97;;;;;;;;;;6215547;23;20178;-85
2023/05/28 09:40:57;;;;;;;5.90;3.07;;;;;;;;;;6215916;23;20177;-85
2023/05/28 09:43:29;;;;;;;3.13;2.10;;;;;;;;;;6215586;23;20250;-85
2023/05/28 09:46:07;;;;;;;5.60;2.90;;;;;;;;;;6216187;23;20209;-85
2023/05/28 09:48:36;;;;;;;6.27;2.33;;;;;;;;;;6215152;23;20246;-85
2023/05/28 09:51:05;;;;;;;12.47;4.60;;;;;;;;;;6215448;23;20198;-85
2023/05/28 09:53:34;;;;;;;3.33;2.23;;;;;;;;;;6215653;23;20205;-85
2023/05/28 09:56:05;;;;;;;6.93;3.43;;;;;;;;;;6215683;23;20223;-85
2023/05/28 09:58:34;;;;;;;3.60;3.10;;;;;;;;;;6215241;23;20173;-87
2023/05/28 10:01:05;;;;;;;7.10;3.77;;;;;;;;;;6216171;23;20174;-85
2023/05/28 10:03:36;;;;;;;2.60;2.40;;;;;;;;;;6214949;23;20201;-84
2023/05/28 10:06:08;;;;;;;7.07;5.10;;;;;;;;;;6214895;23;20183;-84
2023/05/28 10:08:37;;;;;;;6.30;3.57;;;;;;;;;;6216109;23;20182;-84
2023/05/28 10:11:11;;;;;;;4.87;2.63;;;;;;;;;;6215056;23;20212;-84
2023/05/28 10:13:41;;;;;;;3.47;2.17;;;;;;;;;;6214691;23;20180;-84
2023/05/28 10:16:09;;;;;;;2.73;2.27;;;;;;;;;;6215166;23;20182;-86
2023/05/28 10:18:38;;;;;;;16.13;3.67;;;;;;;;;;6215150;23;20189;-84
2023/05/28 10:21:09;;;;;;;4.77;2.70;;;;;;;;;;6215006;23;20199;-84
2023/05/28 10:23:38;;;;;;;8.67;3.87;;;;;;;;;;6214920;23;20249;-84
2023/05/28 10:26:08;;;;;;;7.07;3.33;;;;;;;;;;6214535;23;20206;-83
2023/05/28 10:28:37;;;;;;;6.50;2.87;;;;;;;;;;6214541;23;20198;-84
2023/05/28 10:31:06;;;;;;;5.33;3.63;;;;;;;;;;6214232;23;20196;-83
2023/05/28 10:33:39;;;;;;;12.80;3.67;;;;;;;;;;6215053;23;20211;-85
2023/05/28 10:36:11;;;;;;;5.53;2.83;;;;;;;;;;6215358;23;20239;-83
2023/05/28 10:38:43;;;;;;;5.67;3.47;;;;;;;;;;6214536;23;20207;-84
2023/05/28 10:41:19;;;;;;;5.77;3.37;;;;;;;;;;6214776;23;20169;-83
2023/05/28 10:43:48;;;;;;;7.67;2.73;;;;;;;;;;6214315;23;20173;-83
2023/05/28 10:46:18;;;;;;;2.70;2.50;;;;;;;;;;6214241;23;20207;-83
2023/05/28 10:49:18;;;;;;;3.33;2.97;;;;;;;;;;6215024;23;20239;-83
2023/05/28 10:52:01;;;;;;;9.57;4.23;;;;;;;;;;6093181;23;20209;-83
2023/05/28 10:54:45;;;;;;;4.67;3.23;;;;;;;;;;6199859;23;20175;-83
2023/05/28 10:57:16;;;;;;;5.10;4.60;;;;;;;;;;6212511;23;20176;-83
2023/05/28 10:59:46;;;;;;;3.90;2.17;;;;;;;;;;6214589;23;20174;-83
2023/05/28 11:02:14;;;;;;;3.43;2.37;;;;;;;;;;6214556;23;20211;-82
2023/05/28 11:04:43;;;;;;;3.90;2.27;;;;;;;;;;6214053;23;20173;-83
2023/05/28 11:07:13;;;;;;;2.80;1.77;;;;;;;;;;6214470;23;20186;-83
2023/05/28 11:09:42;;;;;;;7.37;4.17;;;;;;;;;;6214789;23;20180;-83
2023/05/28 11:12:10;;;;;;;4.80;1.53;;;;;;;;;;6214073;23;20203;-83
2023/05/28 11:14:40;;;;;;;7.17;3.20;;;;;;;;;;6214866;23;20192;-82
2023/05/28 11:17:10;;;;;;;3.60;2.70;;;;;;;;;;6214152;23;20195;-82
2023/05/28 11:19:41;;;;;;;3.57;3.23;;;;;;;;;;6214324;23;20178;-82
2023/05/28 11:22:09;;;;;;;5.87;2.23;;;;;;;;;;6214639;23;20179;-83
2023/05/28 11:24:51;;;;;;;3.50;2.37;;;;;;;;;;6214368;23;20226;-83
2023/05/28 11:27:19;;;;;;;4.43;2.60;;;;;;;;;;6214058;23;20221;-82
2023/05/28 11:29:49;;;;;;;3.23;2.50;;;;;;;;;;6213851;23;20181;-82
2023/05/28 11:32:20;;;;;;;5.17;1.97;;;;;;;;;;6214538;23;20241;-82
2023/05/28 11:34:49;;;;;;;5.50;3.03;;;;;;;;;;6214502;23;20177;-83
2023/05/28 11:37:19;;;;;;;3.97;2.90;;;;;;;;;;6214218;23;20178;-82
2023/05/28 11:39:51;;;;;;;5.83;2.60;;;;;;;;;;6214656;23;20174;-82
2023/05/28 11:42:23;;;;;;;2.83;2.37;;;;;;;;;;6212092;23;20170;-82
2023/05/28 11:44:56;;;;;;;4.90;3.07;;;;;;;;;;6213077;23;20174;-82
2023/05/28 11:47:28;;;;;;;6.87;4.10;;;;;;;;;;6211380;23;20206;-82
2023/05/28 11:49:57;;;;;;;1.50;1.40;;;;;;;;;;6214071;23;20176;-81
2023/05/28 11:52:26;;;;;;;8.47;1.90;;;;;;;;;;6213346;23;20204;-82
2023/05/28 11:54:56;;;;;;;1.50;1.40;;;;;;;;;;6213178;23;20182;-82
2023/05/28 11:57:26;;;;;;;5.37;3.17;;;;;;;;;;6214454;23;20184;-82
2023/05/28 12:00:05;;;;;;;5.10;3.17;;;;;;;;;;6215196;23;20175;-82
2023/05/28 12:02:42;;;;;;;2.00;1.80;;;;;;;;;;6215106;23;20234;-82
2023/05/28 12:05:11;;;;;;;8.00;2.90;;;;;;;;;;6213845;23;20175;-82
2023/05/28 12:07:44;;;;;;;2.50;2.27;;;;;;;;;;6214661;23;20226;-82
2023/05/28 12:10:14;;;;;;;4.63;2.30;;;;;;;;;;6213492;23;20171;-82
2023/05/28 12:12:43;;;;;;;5.73;3.20;;;;;;;;;;6213801;23;20206;-82
2023/05/28 12:15:13;;;;;;;8.67;2.07;;;;;;;;;;6214638;23;20189;-82
2023/05/28 12:17:43;;;;;;;3.83;2.83;;;;;;;;;;6213539;23;20178;-82
2023/05/28 12:20:33;;;;;;;3.77;2.27;;;;;;;;;;6213427;23;20202;-82
2023/05/28 12:23:02;;;;;;;4.37;2.60;;;;;;;;;;6212498;23;20202;-82
2023/05/28 12:25:39;;;;;;;3.50;2.37;;;;;;;;;;6213422;23;20167;-82
2023/05/28 12:28:08;;;;;;;3.37;2.53;;;;;;;;;;6212786;23;20257;-82
2023/05/28 12:30:39;;;;;;;2.70;2.17;;;;;;;;;;6214005;23;20179;-82
2023/05/28 12:33:09;;;;;;;6.77;3.50;;;;;;;;;;6213785;23;20216;-82
2023/05/28 12:35:37;;;;;;;3.47;2.37;;;;;;;;;;6213158;23;20274;-82
2023/05/28 12:38:06;;;;;;;1.93;1.83;;;;;;;;;;6214407;23;20181;-82
2023/05/28 12:40:34;;;;;;;3.63;2.17;;;;;;;;;;6214076;23;20181;-82
2023/05/28 12:43:02;;;;;;;8.87;3.10;;;;;;;;;;6213836;23;20225;-82
2023/05/28 12:45:32;;;;;;;2.93;2.60;;;;;;;;;;6212860;23;20212;-82
2023/05/28 12:48:02;;;;;;;4.87;2.33;;;;;;;;;;6214100;23;20235;-82
2023/05/28 12:50:30;;;;;;;3.13;1.67;;;;;;;;;;6213693;23;20171;-82
2023/05/28 12:52:59;;;;;;;3.20;2.47;;;;;;;;;;6212974;23;20193;-82
2023/05/28 12:55:27;;;;;;;5.23;3.20;;;;;;;;;;6213273;23;20180;-82
2023/05/28 12:57:56;;;;;;;3.80;2.60;;;;;;;;;;6213567;23;20184;-82
2023/05/28 13:00:25;;;;;;;5.70;3.40;;;;;;;;;;6213483;23;20175;-82
2023/05/28 13:02:53;;;;;;;4.87;2.63;;;;;;;;;;6213689;23;20174;-82
2023/05/28 13:05:23;;;;;;;4.77;4.27;;;;;;;;;;6213978;23;20174;-82
2023/05/28 13:07:52;;;;;;;3.87;2.67;;;;;;;;;;6213765;23;20253;-82
2023/05/28 13:10:20;;;;;;;3.77;2.53;;;;;;;;;;6213621;23;20179;-82
2023/05/28 13:12:48;;;;;;;3.03;2.43;;;;;;;;;;6213752;23;20203;-82
2023/05/28 13:15:17;;;;;;;2.53;2.20;;;;;;;;;;6213652;23;20178;-83
2023/05/28 13:17:45;;;;;;;4.47;2.17;;;;;;;;;;6213275;23;20201;-83
2023/05/28 13:20:14;;;;;;;5.10;2.80;;;;;;;;;;6213990;23;20234;-82
2023/05/28 13:22:44;;;;;;;11.60;2.23;;;;;;;;;;6213717;23;20198;-82
2023/05/28 13:25:12;;;;;;;4.07;2.33;;;;;;;;;;6213654;23;20175;-82
2023/05/28 13:27:41;;;;;;;2.23;1.90;;;;;;;;;;6213222;23;20192;-82
2023/05/28 13:30:10;;;;;;;5.03;2.30;;;;;;;;;;6214056;23;20184;-83
2023/05/28 13:32:38;;;;;;;7.07;2.50;;;;;;;;;;6212999;23;20290;-83
2023/05/28 13:35:09;;;;;;;3.40;1.43;;;;;;;;;;6213718;23;20175;-83
2023/05/28 13:37:38;;;;;;;3.33;2.80;;;;;;;;;;6213732;23;20181;-83
2023/05/28 13:40:13;;;;;;;1.83;1.60;;;;;;;;;;6214064;23;20181;-83
2023/05/28 13:42:42;;;;;;;3.57;2.13;;;;;;;;;;6212983;23;20168;-86
2023/05/28 13:45:10;;;;;;;4.60;3.00;;;;;;;;;;6213821;23;20175;-86
2023/05/28 13:47:41;;;;;;;2.10;1.17;;;;;;;;;;6213645;23;20206;-86
2023/05/28 13:50:10;;;;;;;4.80;1.90;;;;;;;;;;6213646;23;20179;-86
2023/05/28 13:52:39;;;;;;;5.43;3.37;;;;;;;;;;6213381;23;20200;-86
2023/05/28 13:55:10;;;;;;;4.40;1.63;;;;;;;;;;6213730;23;20262;-87
2023/05/28 13:57:38;;;;;;;2.17;1.77;;;;;;;;;;6213134;23;20206;-87
2023/05/28 14:00:09;;;;;;;2.70;2.40;;;;;;;;;;6213078;23;20177;-87
2023/05/28 14:02:38;;;;;;;2.20;1.57;;;;;;;;;;6215537;23;20202;-87
2023/05/28 14:05:07;;;;;;;3.77;2.53;;;;;;;;;;6215296;23;20174;-87
2023/05/28 14:07:36;;;;;;;2.90;1.57;;;;;;;;;;6214557;23;20229;-86
2023/05/28 14:10:05;;;;;;;2.47;2.03;;;;;;;;;;6215674;23;20183;-86
2023/05/28 14:12:34;;;;;;;2.30;2.10;;;;;;;;;;6215299;23;20198;-86
2023/05/28 14:15:03;;;;;;;4.67;1.90;;;;;;;;;;6215018;23;20172;-87
2023/05/28 14:17:32;;;;;;;2.37;2.10;;;;;;;;;;6215107;23;20175;-87
2023/05/28 14:20:00;;;;;;;4.37;2.03;;;;;;;;;;6215415;23;20187;-87
2023/05/28 14:22:29;;;;;;;1.93;1.30;;;;;;;;;;6215234;23;20204;-86
2023/05/28 14:24:57;;;;;;;6.07;2.70;;;;;;;;;;6214784;23;20173;-87
2023/05/28 14:27:26;;;;;;;3.07;1.53;;;;;;;;;;6215378;23;20209;-87
2023/05/28 14:29:58;;;;;;;2.57;1.37;;;;;;;;;;6214957;23;20173;-87
2023/05/28 14:32:26;;;;;;;3.83;2.20;;;;;;;;;;6214310;23;20213;-86
2023/05/28 14:34:55;;;;;;;2.03;1.90;;;;;;;;;;6215081;23;20211;-87
2023/05/28 14:37:23;;;;;;;2.70;1.97;;;;;;;;;;6215159;23;20179;-87
2023/05/28 14:39:52;;;;;;;2.57;1.73;;;;;;;;;;6214954;23;20214;-86
2023/05/28 14:42:20;;;;;;;3.37;2.17;;;;;;;;;;6214759;23;20179;-86
2023/05/28 14:44:49;;;;;;;3.87;2.30;;;;;;;;;;6215354;23;20175;-86
2023/05/28 14:47:19;;;;;;;5.30;1.97;;;;;;;;;;6214681;23;20204;-87
2023/05/28 14:49:47;;;;;;;6.53;2.77;;;;;;;;;;6214630;23;20175;-87
2023/05/28 14:52:24;;;;;;;4.03;2.47;;;;;;;;;;6214877;23;20171;-86
2023/05/28 14:54:52;;;;;;;2.57;1.93;;;;;;;;;;6214914;23;20240;-87
2023/05/28 14:57:21;;;;;;;4.20;2.77;;;;;;;;;;6214864;23;20172;-87